Mission, TX (78572)

8:22 PM CDT on September 04, 2015 (GMT -0500)
Val's Kountry Corral | | Change Station
CLOSE
Current Station
Personal Weather Station
Location: Mission, TX
Elevation: 135 ft
Nearby Weather Stations

Elev 135 ft 26.21 °N, 98.37 °W | Updated 4 minutes ago

Clear
Clear
87.6 °F
Feels Like 99 °F
N
10.3
Wind Variable Wind from SE

Today
High -- | Low -- °F
--% Chance of Precip.
Yesterday
High -- | Low -- °F
Precip. -- in
7:14 AM 7:49 PM
Waning Gibbous, 54% visible
Pressure 29.85 in
Visibility 10.0 miles
Clouds Clear
Heat Index 99 °F
Dew Point 77 °F
Humidity 70%
Rainfall 0.00 in
Snow Depth Not available.
UV 0 out of 12
Pollen 9.10 out of 12
Air Quality Not available.
Flu Activity Not available.
METAR KMFE 050053Z 14013KT 10SM CLR 32/23 A2985 RMK AO2 SLP106 T03170228
Pressure 29.85 in
Visibility 10.0 miles
Clouds Clear
Heat Index 99 °F
Dew Point 77 °F
Humidity 70%
Rainfall 0.00 in
Snow Depth Not available.
UV 0 out of 12
Pollen 9.10 out of 12
Air Quality Not available.
Flu Activity Not available.
METAR KMFE 050053Z 14013KT 10SM CLR 32/23 A2985 RMK AO2 SLP106 T03170228

10-Day Weather Forecast

×

Almanac

Astronomy

Sep. 04, 2015 Rise Set
Actual Time
Civil Twilight
Nautical Twilight
Astronomical Twilight
Moon
Length of Visible Light
Length of Day
Tomorrow will be .
, % of the Moon is Illuminated

Today's Extremes

State Highs State Lows

Community

WunderPhotos

Upload Photos

1,852,374 photos uploaded!

WunderBlogs® & News

Nearby

Air Quality

  Air Quality AQ Index Pollutant
Not available.

Snow Depth

Station Depth Elevation

Earthquake Activity

City Distance Mag. Time & Date
Minimum magnitude displayed is 2.5.

Coastal Water Temperatures

Place Temperature

Stations

Nearby Weather Stations

Station Location Temp. Windchill Dew Point Humidity Wind Precip. Elev Updated Type